createdAt,value
2023-04-10T00:00:39.442Z,10.10
2023-04-10T00:03:07.804Z,10.10
2023-04-10T00:05:36.425Z,10.00
2023-04-10T00:08:06.165Z,10.00
2023-04-10T00:10:34.279Z,10.00
2023-04-10T00:13:03.654Z,10.00
2023-04-10T00:15:31.892Z,10.00
2023-04-10T00:18:00.020Z,9.90
2023-04-10T00:20:28.183Z,9.90
2023-04-10T00:22:56.405Z,9.80
2023-04-10T00:25:26.626Z,9.80
2023-04-10T00:27:55.235Z,9.80
2023-04-10T00:30:23.501Z,9.80
2023-04-10T00:32:51.576Z,9.80
2023-04-10T00:35:19.825Z,9.70
2023-04-10T00:37:47.922Z,9.70
2023-04-10T00:40:16.079Z,9.80
2023-04-10T00:42:45.476Z,9.70
2023-04-10T00:45:13.528Z,9.70
2023-04-10T00:47:41.997Z,9.60
2023-04-10T00:50:11.012Z,9.60
2023-04-10T00:52:39.394Z,9.50
2023-04-10T00:55:08.699Z,9.50
2023-04-10T00:57:37.303Z,9.50
2023-04-10T01:00:08.204Z,9.40
2023-04-10T01:02:36.526Z,9.50
2023-04-10T01:05:05.059Z,9.40
2023-04-10T01:07:44.575Z,9.40
2023-04-10T01:10:19.290Z,9.40
2023-04-10T01:13:00.999Z,9.30
2023-04-10T01:15:32.543Z,9.30
2023-04-10T01:18:05.700Z,9.20
2023-04-10T01:20:39.333Z,9.20
2023-04-10T01:23:36.083Z,9.20
2023-04-10T01:26:06.653Z,9.20
2023-04-10T01:28:54.620Z,9.30
2023-04-10T01:31:28.548Z,9.20
2023-04-10T01:34:02.386Z,9.20
2023-04-10T01:36:38.010Z,9.20
2023-04-10T01:39:07.945Z,9.10
2023-04-10T01:41:37.033Z,9.10
2023-04-10T01:44:08.430Z,9.10
2023-04-10T01:46:38.477Z,9.10
2023-04-10T01:49:07.322Z,9.10
2023-04-10T01:51:36.707Z,9.10
2023-04-10T01:54:07.123Z,9.10
2023-04-10T01:56:35.738Z,9.00
2023-04-10T01:59:05.649Z,8.90
2023-04-10T02:01:35.196Z,8.90
2023-04-10T02:04:03.766Z,9.00
2023-04-10T02:06:43.143Z,9.00
2023-04-10T02:09:19.150Z,9.00
2023-04-10T02:11:52.930Z,8.90
2023-04-10T02:14:24.194Z,8.90
2023-04-10T02:16:56.159Z,8.90
2023-04-10T02:19:26.390Z,8.80
2023-04-10T02:21:55.212Z,8.80
2023-04-10T02:24:24.354Z,8.80
2023-04-10T02:26:53.742Z,8.90
2023-04-10T02:29:21.867Z,8.80
2023-04-10T02:31:50.948Z,8.80
2023-04-10T02:34:20.400Z,8.70
2023-04-10T02:36:48.483Z,8.80
2023-04-10T02:39:16.641Z,8.90
2023-04-10T02:41:44.723Z,8.90
2023-04-10T02:44:12.779Z,8.90
2023-04-10T02:46:41.310Z,8.80
2023-04-10T02:49:10.613Z,8.90
2023-04-10T02:51:40.094Z,8.90
2023-04-10T02:54:08.166Z,8.80
2023-04-10T02:56:36.469Z,8.90
2023-04-10T02:59:04.741Z,8.80
2023-04-10T03:07:05.024Z,8.80
2023-04-10T03:09:33.064Z,8.80
2023-04-10T03:12:02.118Z,8.90
2023-04-10T03:14:30.503Z,8.80
2023-04-10T03:16:58.642Z,8.80
2023-04-10T03:19:28.157Z,8.70
2023-04-10T03:21:56.282Z,8.70
2023-04-10T03:24:25.770Z,8.70
2023-04-10T03:26:53.930Z,8.70
2023-04-10T03:29:22.594Z,8.60
2023-04-10T03:31:50.930Z,8.50
2023-04-10T03:34:19.099Z,8.50
2023-04-10T03:36:47.934Z,8.50
2023-04-10T03:39:16.070Z,8.50
2023-04-10T03:41:45.503Z,8.40
2023-04-10T03:44:13.547Z,8.40
2023-04-10T03:46:41.650Z,8.40
2023-04-10T03:49:09.787Z,8.40
2023-04-10T03:51:37.834Z,8.40
2023-04-10T03:54:05.995Z,8.40
2023-04-10T03:56:34.183Z,8.40
2023-04-10T03:59:03.617Z,8.50
2023-04-10T04:01:33.092Z,8.50
2023-04-10T04:04:01.566Z,8.40
2023-04-10T04:06:31.179Z,8.40
2023-04-10T04:08:59.246Z,8.30
2023-04-10T04:11:28.807Z,8.30
2023-04-10T04:13:56.939Z,8.30
2023-04-10T04:16:26.472Z,8.20
2023-04-10T04:18:54.810Z,8.20
2023-04-10T04:21:22.915Z,8.20
2023-04-10T04:23:51.032Z,8.20
2023-04-10T04:26:19.150Z,8.20
2023-04-10T04:28:47.343Z,8.10
2023-04-10T04:31:15.726Z,8.20
2023-04-10T04:33:45.426Z,8.30
2023-04-10T04:36:13.950Z,8.40
2023-04-10T04:38:42.075Z,8.40
2023-04-10T04:41:10.345Z,8.50
2023-04-10T04:43:38.414Z,8.50
2023-04-10T04:46:06.925Z,8.40
2023-04-10T04:48:36.141Z,8.40
2023-04-10T04:51:07.529Z,8.40
2023-04-10T04:53:35.639Z,8.40
2023-04-10T04:56:03.791Z,8.40
2023-04-10T04:58:31.916Z,8.30
2023-04-10T05:01:00.352Z,8.40
2023-04-10T05:03:29.434Z,8.40
2023-04-10T05:05:59.319Z,8.50
2023-04-10T05:08:28.814Z,8.60
2023-04-10T05:10:57.059Z,8.60
2023-04-10T05:13:25.387Z,8.60
2023-04-10T05:15:53.547Z,8.70
2023-04-10T05:18:23.770Z,8.70
2023-04-10T05:20:51.986Z,8.80
2023-04-10T05:23:20.096Z,8.80
2023-04-10T05:25:49.525Z,8.90
2023-04-10T05:28:17.663Z,9.00
2023-04-10T05:30:45.839Z,9.00
2023-04-10T05:33:13.927Z,9.00
2023-04-10T05:35:42.109Z,9.10
2023-04-10T05:38:10.413Z,9.10
2023-04-10T05:40:38.480Z,9.30
2023-04-10T05:43:08.600Z,9.40
2023-04-10T05:45:36.658Z,9.50
2023-04-10T05:48:04.915Z,9.60
2023-04-10T05:50:33.069Z,9.60
2023-04-10T05:53:01.106Z,9.70
2023-04-10T05:55:31.722Z,9.80
2023-04-10T05:57:59.810Z,9.90
2023-04-10T06:00:29.216Z,9.90
2023-04-10T06:02:57.440Z,10.10
2023-04-10T06:05:25.988Z,10.30
2023-04-10T06:07:55.736Z,10.40
2023-04-10T06:10:25.033Z,10.40
2023-04-10T06:12:53.031Z,10.70
2023-04-10T06:15:21.132Z,11.10
2023-04-10T06:17:50.606Z,11.60
2023-04-10T06:20:18.708Z,12.00
2023-04-10T06:22:47.178Z,12.20
2023-04-10T06:25:15.411Z,12.40
2023-04-10T06:27:43.517Z,12.30
2023-04-10T06:30:12.029Z,12.40
2023-04-10T06:32:40.169Z,12.50
2023-04-10T06:35:10.536Z,12.60
2023-04-10T06:37:38.645Z,12.80
2023-04-10T06:40:08.306Z,12.60
2023-04-10T06:42:36.771Z,12.70
2023-04-10T06:45:06.064Z,12.70
2023-04-10T06:47:34.277Z,12.50
2023-04-10T06:50:02.330Z,12.60
2023-04-10T06:52:31.800Z,12.80
2023-04-10T06:54:59.880Z,13.10
2023-04-10T06:57:28.773Z,13.40
2023-04-10T06:59:56.940Z,13.50
2023-04-10T07:02:25.343Z,13.60
2023-04-10T07:04:53.743Z,13.90
2023-04-10T07:07:21.903Z,13.90
2023-04-10T07:09:51.347Z,14.10
2023-04-10T07:12:19.424Z,14.00
2023-04-10T07:14:47.574Z,13.80
2023-04-10T07:17:15.648Z,13.60
2023-04-10T07:19:43.763Z,13.70
2023-04-10T07:22:12.634Z,13.60
2023-04-10T07:24:40.728Z,13.80
2023-04-10T07:27:10.322Z,13.90
2023-04-10T07:29:38.390Z,13.80
2023-04-10T07:32:07.092Z,13.70
2023-04-10T07:34:35.304Z,13.40
2023-04-10T07:37:03.400Z,13.30
2023-04-10T07:39:31.464Z,13.30
2023-04-10T07:41:59.560Z,13.30
2023-04-10T07:44:29.767Z,13.40
2023-04-10T07:46:58.947Z,13.70
2023-04-10T07:49:27.172Z,14.10
2023-04-10T07:51:55.458Z,14.30
2023-04-10T07:54:23.639Z,14.70
2023-04-10T07:56:53.619Z,14.90
2023-04-10T07:59:21.756Z,14.80
2023-04-10T08:01:51.432Z,14.70
2023-04-10T08:04:19.781Z,15.10
2023-04-10T08:06:49.518Z,15.30
2023-04-10T08:09:17.592Z,15.70
2023-04-10T08:11:45.674Z,16.40
2023-04-10T08:14:13.799Z,16.80
2023-04-10T08:16:46.641Z,17.10
2023-04-10T08:19:16.101Z,17.60
2023-04-10T08:21:44.228Z,18.10
2023-04-10T08:24:12.328Z,18.40
2023-04-10T08:26:40.385Z,18.50
2023-04-10T08:29:08.457Z,18.40
2023-04-10T08:31:36.605Z,18.40
2023-04-10T08:34:04.993Z,18.50
2023-04-10T08:36:35.517Z,17.70
2023-04-10T08:39:03.595Z,17.10
2023-04-10T08:41:31.761Z,16.80
2023-04-10T08:43:59.851Z,16.40
2023-04-10T08:46:28.145Z,16.10
2023-04-10T08:49:02.922Z,16.00
2023-04-10T08:51:38.306Z,16.20
2023-04-10T08:54:09.009Z,16.40
2023-04-10T08:56:38.890Z,16.80
2023-04-10T08:59:08.723Z,16.90
2023-04-10T09:01:37.177Z,16.80
2023-04-10T09:04:06.134Z,16.50
2023-04-10T09:06:36.125Z,16.60
2023-04-10T09:09:04.699Z,16.60
2023-04-10T09:12:04.350Z,16.60
2023-04-10T09:14:33.584Z,16.40
2023-04-10T09:17:18.625Z,16.20
2023-04-10T09:19:48.126Z,16.00
2023-04-10T09:22:17.966Z,16.00
2023-04-10T09:24:48.235Z,16.00
2023-04-10T09:27:31.252Z,15.90
2023-04-10T09:29:59.827Z,16.20
2023-04-10T09:32:42.332Z,16.20
2023-04-10T09:35:11.852Z,16.40
2023-04-10T09:37:42.695Z,16.50
2023-04-10T09:51:37.201Z,16.00
2023-04-10T09:54:06.947Z,15.70
2023-04-10T09:56:40.945Z,15.60
2023-04-10T09:59:09.582Z,15.60
2023-04-10T10:01:41.385Z,15.50
2023-04-10T10:04:11.153Z,15.60
2023-04-10T10:06:40.324Z,15.60
2023-04-10T10:09:10.321Z,15.50
2023-04-10T10:11:38.554Z,15.50
2023-04-10T10:14:14.146Z,15.60
2023-04-10T10:16:46.753Z,15.80
2023-04-10T10:19:24.612Z,15.80
2023-04-10T10:21:53.523Z,15.90
2023-04-10T10:24:26.207Z,16.00
2023-04-10T10:26:57.333Z,16.00
2023-04-10T10:29:26.029Z,16.00
2023-04-10T10:31:55.098Z,16.20
2023-04-10T10:34:23.330Z,16.30
2023-04-10T10:36:51.480Z,16.30
2023-04-10T10:39:31.960Z,16.40
2023-04-10T10:42:08.904Z,16.40
2023-04-10T10:44:44.078Z,16.40
2023-04-10T10:47:17.345Z,16.60
2023-04-10T10:49:56.307Z,16.80
2023-04-10T10:52:57.225Z,16.90
2023-04-10T10:55:36.088Z,17.10
2023-04-10T10:58:06.209Z,17.20
2023-04-10T11:01:08.395Z,17.30
2023-04-10T11:03:38.480Z,17.30
2023-04-10T11:06:08.971Z,17.20
2023-04-10T11:08:42.660Z,17.50
2023-04-10T11:11:16.056Z,17.30
2023-04-10T11:14:18.413Z,17.40
2023-04-10T11:16:48.748Z,17.60
2023-04-10T11:19:22.657Z,17.60
2023-04-10T11:22:09.221Z,17.80
2023-04-10T11:25:51.229Z,17.70
2023-04-10T11:28:42.233Z,17.70
2023-04-10T11:31:22.259Z,17.90
2023-04-10T11:33:52.189Z,18.20
2023-04-10T11:36:20.475Z,18.30
2023-04-10T11:38:58.977Z,18.50
2023-04-10T11:41:32.004Z,18.50
2023-04-10T11:44:03.303Z,18.60
2023-04-10T11:46:32.042Z,18.50
2023-04-10T11:49:01.634Z,18.50
2023-04-10T11:51:31.059Z,18.50
2023-04-10T11:54:09.626Z,18.70
2023-04-10T11:56:39.066Z,18.80
2023-04-10T11:59:10.944Z,18.70
2023-04-10T12:01:42.499Z,18.70
2023-04-10T12:04:18.108Z,18.60
2023-04-10T12:06:47.261Z,18.80
2023-04-10T12:09:17.511Z,18.80
2023-04-10T12:11:56.809Z,18.90
2023-04-10T12:14:31.600Z,18.90
2023-04-10T12:17:00.032Z,18.90
2023-04-10T12:19:28.526Z,19.10
2023-04-10T12:21:57.460Z,19.20
2023-04-10T12:24:44.896Z,19.20
2023-04-10T12:27:19.704Z,19.10
2023-04-10T12:29:50.498Z,18.80
2023-04-10T12:32:19.128Z,18.60
2023-04-10T12:34:51.840Z,18.60
2023-04-10T12:37:20.192Z,18.70
2023-04-10T12:39:48.278Z,18.70
2023-04-10T12:42:17.782Z,18.80
2023-04-10T12:44:54.301Z,18.70
2023-04-10T12:47:22.570Z,18.70
2023-04-10T12:50:10.869Z,18.60
2023-04-10T12:52:40.400Z,18.40
2023-04-10T12:55:15.998Z,18.20
2023-04-10T12:57:46.080Z,18.10
2023-04-10T13:00:17.778Z,17.90
2023-04-10T13:02:47.260Z,17.90
2023-04-10T13:05:16.453Z,18.00
2023-04-10T13:07:44.609Z,17.80
2023-04-10T13:10:12.897Z,17.70
2023-04-10T13:12:42.104Z,17.60
2023-04-10T13:15:11.558Z,17.50
2023-04-10T13:17:41.831Z,17.50
2023-04-10T13:20:11.412Z,17.50
2023-04-10T13:22:39.498Z,17.50
2023-04-10T13:25:08.048Z,17.50
2023-04-10T13:27:38.915Z,17.40
2023-04-10T13:30:08.365Z,17.30
2023-04-10T13:32:36.519Z,17.30
2023-04-10T13:35:06.769Z,17.30
2023-04-10T13:37:34.833Z,17.30
2023-04-10T13:40:02.949Z,17.30
2023-04-10T13:42:31.050Z,17.20
2023-04-10T13:44:59.098Z,17.20
2023-04-10T13:47:27.204Z,17.10
2023-04-10T13:49:55.348Z,17.20
2023-04-10T13:52:24.816Z,17.10
2023-04-10T13:54:52.905Z,17.00
2023-04-10T13:57:20.942Z,17.00
2023-04-10T13:59:49.088Z,17.00
2023-04-10T14:02:17.354Z,17.00
2023-04-10T14:04:46.251Z,17.00
2023-04-10T14:07:14.370Z,17.10
2023-04-10T14:09:43.791Z,17.20
2023-04-10T14:12:12.011Z,17.20
2023-04-10T14:14:42.463Z,17.30
2023-04-10T14:17:10.596Z,17.40
2023-04-10T14:19:38.876Z,17.50
2023-04-10T14:22:07.121Z,17.60
2023-04-10T14:24:35.395Z,17.70
2023-04-10T14:27:05.068Z,17.70
2023-04-10T14:29:37.637Z,17.70
2023-04-10T14:32:07.636Z,17.70
2023-04-10T14:34:35.807Z,17.80
2023-04-10T14:37:03.908Z,17.80
2023-04-10T14:39:32.865Z,17.70
2023-04-10T14:42:02.030Z,17.70
2023-04-10T14:44:32.020Z,17.60
2023-04-10T14:47:00.151Z,17.60
2023-04-10T14:49:28.215Z,17.50
2023-04-10T14:51:56.390Z,17.40
2023-04-10T14:54:24.488Z,17.30
2023-04-10T15:00:45.061Z,16.90
2023-04-10T15:03:13.295Z,16.50
2023-04-10T15:05:41.423Z,16.20
2023-04-10T15:08:09.571Z,15.90
2023-04-10T15:10:37.673Z,15.60
2023-04-10T15:13:06.128Z,15.30
2023-04-10T15:15:34.225Z,15.10
2023-04-10T15:18:03.738Z,14.80
2023-04-10T15:20:31.819Z,14.70
2023-04-10T15:23:01.664Z,14.50
2023-04-10T15:25:31.691Z,14.40
2023-04-10T15:28:01.759Z,14.30
2023-04-10T15:30:30.298Z,14.30
2023-04-10T15:32:58.417Z,14.20
2023-04-10T15:35:28.795Z,14.10
2023-04-10T15:37:57.139Z,14.00
2023-04-10T15:40:25.218Z,14.00
2023-04-10T15:42:53.312Z,14.00
2023-04-10T15:45:21.428Z,13.90
2023-04-10T15:47:49.739Z,13.80
2023-04-10T15:50:18.027Z,13.80
2023-04-10T15:52:47.479Z,13.80
2023-04-10T15:55:15.882Z,13.70
2023-04-10T15:57:43.960Z,13.70
2023-04-10T16:00:13.436Z,13.70
2023-04-10T16:02:41.738Z,13.70
2023-04-10T16:05:10.311Z,13.70
2023-04-10T16:12:01.999Z,13.60
2023-04-10T16:14:30.069Z,13.70
2023-04-10T16:16:58.179Z,13.70
2023-04-10T16:19:26.308Z,13.70
2023-04-10T16:21:54.399Z,13.70
2023-04-10T16:28:08.048Z,13.80
2023-04-10T16:30:39.603Z,13.80
2023-04-10T16:33:07.802Z,13.80
2023-04-10T16:35:36.100Z,13.90
2023-04-10T16:38:04.308Z,13.90
2023-04-10T16:40:33.224Z,13.90
2023-04-10T16:43:02.129Z,14.00
2023-04-10T16:45:31.686Z,14.00
2023-04-10T16:47:59.798Z,14.00
2023-04-10T16:50:27.884Z,14.10
2023-04-10T16:52:56.039Z,14.00
2023-04-10T16:55:24.133Z,14.10
2023-04-10T16:57:52.229Z,14.10
2023-04-10T17:00:20.580Z,14.20
2023-04-10T17:02:50.101Z,14.10
2023-04-10T17:05:18.236Z,14.20
2023-04-10T17:07:46.271Z,14.30
2023-04-10T17:10:14.387Z,14.30
2023-04-10T17:12:43.580Z,14.10
2023-04-10T17:15:12.466Z,13.70
2023-04-10T17:17:40.782Z,13.30
2023-04-10T17:20:11.183Z,13.10
2023-04-10T17:22:40.678Z,13.00
2023-04-10T17:25:09.563Z,12.80
2023-04-10T17:27:40.303Z,12.70
2023-04-10T17:30:12.822Z,12.60
2023-04-10T17:32:41.998Z,12.60
2023-04-10T17:35:11.547Z,12.30
2023-04-10T17:37:39.667Z,12.20
2023-04-10T17:40:09.031Z,12.20
2023-04-10T17:42:37.132Z,12.10
2023-04-10T17:45:05.823Z,12.10
2023-04-10T17:47:33.935Z,12.00
2023-04-10T17:50:02.069Z,12.00
2023-04-10T17:52:31.555Z,12.00
2023-04-10T17:55:01.545Z,12.00
2023-04-10T17:57:29.742Z,11.90
2023-04-10T17:59:57.921Z,11.90
2023-04-10T18:02:26.118Z,11.90
2023-04-10T18:04:54.321Z,11.90
2023-04-10T18:07:22.365Z,11.80
2023-04-10T18:09:51.865Z,11.80
2023-04-10T18:12:19.949Z,11.80
2023-04-10T18:14:48.526Z,11.70
2023-04-10T18:17:16.593Z,11.70
2023-04-10T18:19:44.675Z,11.60
2023-04-10T18:22:12.785Z,11.60
2023-04-10T18:24:40.917Z,11.60
2023-04-10T18:27:10.364Z,11.60
2023-04-10T18:29:40.092Z,11.60
2023-04-10T18:32:08.697Z,11.60
2023-04-10T18:34:36.823Z,11.60
2023-04-10T18:37:05.176Z,11.60
2023-04-10T18:39:36.103Z,11.50
2023-04-10T18:42:07.472Z,11.50
2023-04-10T18:44:37.311Z,11.60
2023-04-10T18:47:06.072Z,11.60
2023-04-10T18:49:34.302Z,11.50
2023-04-10T18:52:02.588Z,11.50
2023-04-10T18:54:30.711Z,11.50
2023-04-10T18:56:58.789Z,11.50
2023-04-10T18:59:28.231Z,11.40
2023-04-10T19:01:57.767Z,11.40
2023-04-10T19:04:26.110Z,11.40
2023-04-10T19:06:54.228Z,11.50
2023-04-10T19:09:22.354Z,11.50
2023-04-10T19:11:53.759Z,11.40
2023-04-10T19:14:21.950Z,11.40
2023-04-10T19:16:53.338Z,11.40
2023-04-10T19:19:25.485Z,11.40
2023-04-10T19:21:55.355Z,11.40
2023-04-10T19:24:23.857Z,11.40
2023-04-10T19:26:55.175Z,11.30
2023-04-10T19:29:24.636Z,11.30
2023-04-10T19:31:53.036Z,11.20
2023-04-10T19:34:23.125Z,11.30
2023-04-10T19:36:51.850Z,11.20
2023-04-10T19:39:20.068Z,11.20
2023-04-10T19:41:48.384Z,11.20
2023-04-10T19:44:16.568Z,11.20
2023-04-10T19:46:47.500Z,11.10
2023-04-10T19:49:15.973Z,11.10
2023-04-10T19:51:45.910Z,11.00
2023-04-10T19:54:16.209Z,11.10
2023-04-10T19:56:44.298Z,11.10
2023-04-10T19:59:12.422Z,11.00
2023-04-10T20:01:42.858Z,11.00
2023-04-10T20:04:13.092Z,11.00
2023-04-10T20:06:43.249Z,11.00
2023-04-10T20:09:13.164Z,11.00
2023-04-10T20:11:41.383Z,11.00
2023-04-10T20:14:09.537Z,11.00
2023-04-10T20:16:37.893Z,10.90
2023-04-10T20:19:06.162Z,10.90
2023-04-10T20:21:34.446Z,10.90
2023-04-10T20:24:02.520Z,10.80
2023-04-10T20:26:32.034Z,10.80
2023-04-10T20:29:00.457Z,10.80
2023-04-10T20:31:30.898Z,10.70
2023-04-10T20:34:00.367Z,10.70
2023-04-10T20:36:30.358Z,10.70
2023-04-10T20:38:58.489Z,10.70
2023-04-10T20:41:28.108Z,10.70
2023-04-10T20:43:58.625Z,10.60
2023-04-10T20:46:27.583Z,10.60
2023-04-10T20:48:59.358Z,10.70
2023-04-10T20:51:31.675Z,10.60
2023-04-10T20:53:59.858Z,10.50
2023-04-10T20:56:36.714Z,10.50
2023-04-10T20:59:12.802Z,10.50
2023-04-10T21:01:43.568Z,10.50
2023-04-10T21:04:11.743Z,10.50
2023-04-10T21:06:39.967Z,10.50
2023-04-10T21:09:08.032Z,10.60
2023-04-10T21:11:37.353Z,10.70
2023-04-10T21:14:05.532Z,10.70
2023-04-10T21:16:37.637Z,10.70
2023-04-10T21:19:20.901Z,10.70
2023-04-10T21:22:07.406Z,10.70
2023-04-10T21:24:35.557Z,10.80
2023-04-10T21:27:04.435Z,10.80
2023-04-10T21:29:32.536Z,10.80
2023-04-10T21:32:01.988Z,10.80
2023-04-10T21:34:32.926Z,10.70
2023-04-10T21:37:01.077Z,10.80
2023-04-10T21:39:30.739Z,10.70
2023-04-10T21:41:58.813Z,10.60
2023-04-10T21:44:26.920Z,10.60
2023-04-10T21:46:55.245Z,10.50
2023-04-10T21:49:24.709Z,10.50
2023-04-10T21:51:52.770Z,10.40
2023-04-10T21:54:20.843Z,10.40
2023-04-10T21:56:48.890Z,10.40
2023-04-10T21:59:16.983Z,10.40
2023-04-10T22:01:45.137Z,10.50
2023-04-10T22:04:13.403Z,10.50
2023-04-10T22:06:43.062Z,10.60
2023-04-10T22:09:11.175Z,10.60
2023-04-10T22:11:40.359Z,10.60
2023-04-10T22:14:17.037Z,10.60
2023-04-10T22:16:46.359Z,10.70
2023-04-10T22:19:14.512Z,10.60
2023-04-10T22:21:44.004Z,10.60
2023-04-10T22:24:12.223Z,10.50
2023-04-10T22:26:42.107Z,10.50
2023-04-10T22:29:10.263Z,10.40
2023-04-10T22:31:38.356Z,10.50
2023-04-10T22:34:06.401Z,10.50
2023-04-10T22:36:34.617Z,10.60
2023-04-10T22:39:04.429Z,10.60
2023-04-10T22:41:33.043Z,10.60
2023-04-10T22:44:01.160Z,10.60
2023-04-10T22:46:29.470Z,10.60
2023-04-10T22:48:57.872Z,10.60
2023-04-10T22:51:26.806Z,10.70
2023-04-10T22:53:54.915Z,10.70
2023-04-10T22:56:26.715Z,10.70
2023-04-10T22:58:55.085Z,10.70
2023-04-10T23:01:23.419Z,10.70
2023-04-10T23:03:53.745Z,10.70
2023-04-10T23:06:22.133Z,10.70
2023-04-10T23:08:50.207Z,10.70
2023-04-10T23:11:18.407Z,10.70
2023-04-10T23:13:48.813Z,10.70
2023-04-10T23:16:16.942Z,10.70
2023-04-10T23:18:45.134Z,10.70
2023-04-10T23:21:13.204Z,10.60
2023-04-10T23:23:41.305Z,10.60
2023-04-10T23:26:11.315Z,10.60
2023-04-10T23:28:39.586Z,10.60
2023-04-10T23:31:10.129Z,10.60
2023-04-10T23:33:38.343Z,10.60
2023-04-10T23:36:07.316Z,10.60
2023-04-10T23:38:35.416Z,10.60
2023-04-10T23:41:03.971Z,10.60
2023-04-10T23:43:32.079Z,10.50
2023-04-10T23:46:00.364Z,10.50
2023-04-10T23:48:29.853Z,10.40
2023-04-10T23:51:05.388Z,10.50
2023-04-10T23:53:33.584Z,10.40
2023-04-10T23:56:01.863Z,10.40
2023-04-10T23:58:30.032Z,10.40
